createdAt,value
2022-10-05T00:01:53.003Z,8.60
2022-10-05T00:04:24.200Z,8.60
2022-10-05T00:06:59.269Z,8.60
2022-10-05T00:09:28.378Z,8.50
2022-10-05T00:11:56.642Z,8.50
2022-10-05T00:14:32.664Z,8.50
2022-10-05T00:17:00.326Z,8.50
2022-10-05T00:19:38.978Z,8.50
2022-10-05T00:22:09.422Z,8.50
2022-10-05T00:24:36.655Z,8.40
2022-10-05T00:27:22.045Z,8.40
2022-10-05T00:29:49.993Z,8.40
2022-10-05T00:32:17.533Z,8.40
2022-10-05T00:34:45.169Z,8.40
2022-10-05T00:37:12.535Z,8.40
2022-10-05T00:39:39.743Z,8.40
2022-10-05T00:42:40.605Z,8.40
2022-10-05T00:45:14.082Z,8.40
2022-10-05T00:48:03.544Z,8.40
2022-10-05T00:50:43.672Z,8.40
2022-10-05T00:54:03.355Z,8.30
2022-10-05T00:57:06.562Z,8.40
2022-10-05T00:59:36.877Z,8.40
2022-10-05T01:02:10.739Z,8.40
2022-10-05T01:04:48.124Z,8.40
2022-10-05T01:07:23.433Z,8.30
2022-10-05T01:09:53.667Z,8.40
2022-10-05T01:12:32.933Z,8.30
2022-10-05T01:15:51.118Z,8.40
2022-10-05T01:18:55.188Z,8.40
2022-10-05T01:21:26.482Z,8.40
2022-10-05T01:24:12.865Z,8.40
2022-10-05T01:26:51.987Z,8.40
2022-10-05T01:29:39.504Z,8.40
2022-10-05T01:32:45.444Z,8.40
2022-10-05T01:35:45.427Z,8.40
2022-10-05T01:38:37.198Z,8.40
2022-10-05T01:41:07.676Z,8.40
2022-10-05T01:43:59.333Z,8.40
2022-10-05T01:46:49.486Z,8.40
2022-10-05T01:49:18.886Z,8.40
2022-10-05T01:52:04.762Z,8.40
2022-10-05T01:54:48.040Z,8.40
2022-10-05T01:57:34.006Z,8.40
2022-10-05T02:00:14.703Z,8.40
2022-10-05T02:02:51.868Z,8.40
2022-10-05T02:05:46.078Z,8.40
2022-10-05T02:08:50.292Z,8.40
2022-10-05T02:11:18.980Z,8.40
2022-10-05T02:13:52.968Z,8.30
2022-10-05T02:16:31.097Z,8.30
2022-10-05T02:19:16.096Z,8.30
2022-10-05T02:21:46.297Z,8.20
2022-10-05T02:24:18.555Z,8.20
2022-10-05T02:26:46.137Z,8.20
2022-10-05T02:29:13.738Z,8.10
2022-10-05T02:31:52.826Z,8.10
2022-10-05T02:34:30.096Z,8.20
2022-10-05T02:37:27.512Z,8.20
2022-10-05T02:40:23.104Z,8.10
2022-10-05T02:43:05.728Z,8.10
2022-10-05T02:45:45.006Z,8.10
2022-10-05T02:48:20.824Z,8.10
2022-10-05T02:51:11.492Z,8.10
2022-10-05T02:53:51.167Z,8.10
2022-10-05T02:56:21.692Z,8.10
2022-10-05T02:59:07.449Z,8.00
2022-10-05T03:01:51.874Z,8.00
2022-10-05T03:04:46.673Z,8.00
2022-10-05T03:07:43.008Z,8.00
2022-10-05T03:10:20.751Z,8.00
2022-10-05T03:13:02.485Z,7.90
2022-10-05T03:15:55.943Z,7.90
2022-10-05T03:18:30.895Z,7.90
2022-10-05T03:21:05.714Z,7.90
2022-10-05T03:23:46.930Z,7.90
2022-10-05T03:26:24.574Z,7.80
2022-10-05T03:29:49.344Z,7.80
2022-10-05T03:32:42.571Z,7.90
2022-10-05T03:35:18.352Z,7.80
2022-10-05T03:38:18.533Z,7.80
2022-10-05T03:40:58.625Z,7.80
2022-10-05T03:43:32.837Z,7.80
2022-10-05T03:46:09.184Z,7.80
2022-10-05T03:48:42.113Z,7.80
2022-10-05T03:51:42.449Z,7.80
2022-10-05T03:54:17.543Z,7.80
2022-10-05T03:56:49.892Z,7.80
2022-10-05T03:59:33.817Z,7.70
2022-10-05T04:02:05.364Z,7.70
2022-10-05T04:04:41.475Z,7.70
2022-10-05T04:07:21.365Z,7.70
2022-10-05T04:09:48.647Z,7.70
2022-10-05T04:12:35.929Z,7.60
2022-10-05T04:18:27.650Z,7.60
2022-10-05T04:20:58.894Z,7.60
2022-10-05T04:23:58.278Z,7.60
2022-10-05T04:26:37.578Z,7.60
2022-10-05T04:29:36.347Z,7.60
2022-10-05T04:32:16.454Z,7.60
2022-10-05T04:34:59.284Z,7.50
2022-10-05T04:37:53.161Z,7.50
2022-10-05T04:40:32.765Z,7.50
2022-10-05T04:43:13.517Z,7.60
2022-10-05T04:45:55.932Z,7.60
2022-10-05T04:48:39.284Z,7.50
2022-10-05T04:51:17.199Z,7.50
2022-10-05T04:54:03.122Z,7.50
2022-10-05T04:56:38.883Z,7.50
2022-10-05T04:59:31.194Z,7.50
2022-10-05T05:02:22.682Z,7.50
2022-10-05T05:05:12.643Z,7.50
2022-10-05T05:08:11.126Z,7.50
2022-10-05T05:10:58.025Z,7.50
2022-10-05T05:13:35.618Z,7.50
2022-10-05T05:16:06.117Z,7.40
2022-10-05T05:18:59.755Z,7.40
2022-10-05T05:21:39.929Z,7.40
2022-10-05T05:24:27.270Z,7.40
2022-10-05T05:35:31.778Z,7.40
2022-10-05T05:38:08.070Z,7.40
2022-10-05T05:40:42.398Z,7.40
2022-10-05T05:43:16.909Z,7.40
2022-10-05T05:45:52.690Z,7.40
2022-10-05T05:48:37.705Z,7.40
2022-10-05T05:51:43.498Z,7.40
2022-10-05T05:54:38.940Z,7.40
2022-10-05T05:57:37.858Z,7.40
2022-10-05T06:00:16.976Z,7.40
2022-10-05T06:03:04.299Z,7.40
2022-10-05T06:05:48.270Z,7.40
2022-10-05T06:08:20.923Z,7.40
2022-10-05T06:11:02.673Z,7.40
2022-10-05T06:13:41.294Z,7.40
2022-10-05T06:16:14.913Z,7.50
2022-10-05T06:18:43.989Z,7.50
2022-10-05T06:21:26.648Z,7.50
2022-10-05T06:24:17.784Z,7.60
2022-10-05T06:27:10.663Z,7.60
2022-10-05T06:30:07.686Z,7.60
2022-10-05T06:32:59.900Z,7.60
2022-10-05T06:35:39.360Z,7.70
2022-10-05T06:38:28.226Z,7.70
2022-10-05T06:41:29.437Z,7.80
2022-10-05T06:44:04.154Z,7.90
2022-10-05T06:46:54.393Z,7.90
2022-10-05T06:49:53.441Z,8.00
2022-10-05T06:53:04.169Z,8.10
2022-10-05T06:55:38.705Z,8.10
2022-10-05T06:58:15.202Z,8.20
2022-10-05T07:01:00.191Z,8.30
2022-10-05T07:04:00.978Z,8.50
2022-10-05T07:06:38.469Z,8.80
2022-10-05T07:09:36.091Z,8.90
2022-10-05T07:12:38.934Z,9.20
2022-10-05T07:19:25.578Z,9.50
2022-10-05T07:22:04.924Z,9.60
2022-10-05T07:24:34.423Z,9.70
2022-10-05T07:27:06.338Z,9.70
2022-10-05T07:30:04.952Z,9.80
2022-10-05T07:32:35.646Z,9.90
2022-10-05T07:35:43.651Z,10.00
2022-10-05T07:38:26.540Z,10.10
2022-10-05T07:40:58.466Z,10.20
2022-10-05T07:43:51.469Z,10.30
2022-10-05T07:46:29.320Z,10.50
2022-10-05T07:49:06.403Z,10.60
2022-10-05T07:51:40.888Z,10.70
2022-10-05T07:54:47.869Z,10.90
2022-10-05T07:57:27.413Z,11.00
2022-10-05T08:00:11.520Z,11.20
2022-10-05T08:02:56.265Z,11.30
2022-10-05T08:05:31.120Z,11.40
2022-10-05T08:08:21.199Z,11.50
2022-10-05T08:11:09.442Z,11.60
2022-10-05T08:13:47.219Z,11.70
2022-10-05T08:16:14.604Z,11.80
2022-10-05T08:18:53.257Z,11.90
2022-10-05T08:21:33.919Z,12.00
2022-10-05T08:24:14.329Z,12.20
2022-10-05T08:26:48.149Z,12.40
2022-10-05T08:29:21.166Z,12.40
2022-10-05T08:31:50.196Z,12.40
2022-10-05T08:34:41.750Z,12.50
2022-10-05T08:37:28.078Z,12.60
2022-10-05T08:40:01.369Z,12.70
2022-10-05T08:42:55.905Z,12.80
2022-10-05T08:49:01.531Z,13.00
2022-10-05T08:51:41.497Z,13.20
2022-10-05T08:54:28.983Z,13.20
2022-10-05T08:56:56.041Z,13.30
2022-10-05T08:59:57.024Z,13.40
2022-10-05T09:02:56.338Z,13.50
2022-10-05T09:05:36.885Z,13.70
2022-10-05T09:08:23.966Z,13.80
2022-10-05T09:11:19.001Z,14.00
2022-10-05T09:14:01.461Z,14.10
2022-10-05T09:16:47.389Z,14.30
2022-10-05T09:19:39.498Z,14.40
2022-10-05T09:22:30.193Z,14.40
2022-10-05T09:24:58.131Z,14.60
2022-10-05T09:27:37.106Z,14.60
2022-10-05T09:30:12.928Z,14.70
2022-10-05T09:32:58.802Z,14.70
2022-10-05T09:35:59.329Z,14.70
2022-10-05T09:38:45.901Z,14.80
2022-10-05T09:44:40.356Z,15.00
2022-10-05T09:47:30.897Z,15.10
2022-10-05T09:50:09.759Z,15.10
2022-10-05T09:52:48.975Z,15.20
2022-10-05T09:55:27.966Z,15.20
2022-10-05T09:58:07.829Z,15.30
2022-10-05T10:00:41.107Z,15.30
2022-10-05T10:03:45.262Z,15.40
2022-10-05T10:06:53.478Z,15.50
2022-10-05T10:09:45.188Z,15.50
2022-10-05T10:12:49.819Z,15.60
2022-10-05T10:15:24.027Z,15.80
2022-10-05T10:18:02.711Z,15.90
2022-10-05T10:20:34.970Z,16.00
2022-10-05T10:23:10.233Z,16.10
2022-10-05T10:25:54.602Z,16.20
2022-10-05T10:28:42.742Z,16.40
2022-10-05T10:31:26.624Z,16.40
2022-10-05T10:33:59.789Z,16.50
2022-10-05T10:37:06.078Z,16.60
2022-10-05T10:40:00.047Z,16.60
2022-10-05T10:42:39.981Z,16.60
2022-10-05T10:45:24.075Z,16.60
2022-10-05T10:48:05.066Z,16.60
2022-10-05T10:50:53.678Z,16.70
2022-10-05T10:53:35.899Z,16.80
2022-10-05T10:56:40.587Z,16.80
2022-10-05T10:59:26.559Z,16.90
2022-10-05T11:02:24.219Z,17.00
2022-10-05T11:04:54.269Z,17.00
2022-10-05T11:07:24.169Z,17.10
2022-10-05T11:10:21.299Z,17.10
2022-10-05T11:13:16.289Z,17.10
2022-10-05T11:16:02.309Z,17.20
2022-10-05T11:19:17.002Z,17.30
2022-10-05T11:22:13.057Z,17.40
2022-10-05T11:25:01.357Z,17.40
2022-10-05T11:27:53.347Z,17.30
2022-10-05T11:30:22.944Z,17.40
2022-10-05T11:33:21.466Z,17.50
2022-10-05T11:36:33.553Z,17.60
2022-10-05T11:39:24.938Z,17.60
2022-10-05T11:42:10.906Z,17.60
2022-10-05T11:45:14.073Z,17.60
2022-10-05T11:48:04.199Z,17.60
2022-10-05T11:50:48.656Z,17.60
2022-10-05T11:53:53.405Z,17.70
2022-10-05T11:56:36.484Z,17.80
2022-10-05T11:59:18.898Z,17.90
2022-10-05T12:01:56.047Z,18.10
2022-10-05T12:04:37.794Z,18.20
2022-10-05T12:07:13.361Z,18.20
2022-10-05T12:10:07.012Z,18.30
2022-10-05T12:12:38.247Z,18.40
2022-10-05T12:15:27.301Z,18.40
2022-10-05T12:18:23.918Z,18.50
2022-10-05T12:20:54.107Z,18.60
2022-10-05T12:23:43.536Z,18.60
2022-10-05T12:26:16.375Z,18.60
2022-10-05T12:28:49.563Z,18.50
2022-10-05T12:31:29.009Z,18.50
2022-10-05T12:34:27.216Z,18.60
2022-10-05T12:37:15.966Z,18.60
2022-10-05T12:39:50.729Z,18.70
2022-10-05T12:42:28.554Z,18.90
2022-10-05T12:45:00.086Z,19.00
2022-10-05T12:47:59.181Z,19.10
2022-10-05T12:50:36.786Z,19.10
2022-10-05T12:53:48.345Z,19.20
2022-10-05T12:59:39.256Z,19.30
2022-10-05T13:02:23.610Z,19.20
2022-10-05T13:04:51.838Z,19.10
2022-10-05T13:07:38.508Z,19.10
2022-10-05T13:10:24.594Z,19.10
2022-10-05T13:13:00.677Z,19.10
2022-10-05T13:15:39.981Z,19.00
2022-10-05T13:18:16.875Z,19.00
2022-10-05T13:21:26.802Z,19.10
2022-10-05T13:24:18.775Z,19.10
2022-10-05T13:27:27.642Z,19.10
2022-10-05T13:29:56.876Z,19.10
2022-10-05T13:32:36.750Z,19.10
2022-10-05T13:35:17.646Z,19.10
2022-10-05T13:37:54.158Z,19.10
2022-10-05T13:40:36.043Z,19.10
2022-10-05T13:43:33.396Z,19.10
2022-10-05T13:46:26.366Z,19.10
2022-10-05T13:49:01.352Z,19.20
2022-10-05T13:51:36.725Z,19.20
2022-10-05T13:54:10.731Z,19.20
2022-10-05T13:56:45.651Z,19.20
2022-10-05T13:59:23.127Z,19.30
2022-10-05T14:02:05.627Z,19.30
2022-10-05T14:07:40.777Z,19.40
2022-10-05T14:10:12.635Z,19.40
2022-10-05T14:12:41.168Z,19.30
2022-10-05T14:15:22.687Z,19.30
2022-10-05T14:17:52.661Z,19.20
2022-10-05T14:20:25.999Z,19.20
2022-10-05T14:22:56.461Z,19.10
2022-10-05T14:25:23.692Z,19.20
2022-10-05T14:27:59.778Z,19.20
2022-10-05T14:30:28.636Z,19.10
2022-10-05T14:33:04.672Z,19.10
2022-10-05T14:35:51.630Z,19.10
2022-10-05T14:38:26.231Z,19.00
2022-10-05T14:41:06.260Z,19.00
2022-10-05T14:43:33.986Z,18.90
2022-10-05T14:46:05.296Z,18.80
2022-10-05T14:48:41.627Z,18.80
2022-10-05T14:51:31.726Z,18.70
2022-10-05T14:54:00.742Z,18.70
2022-10-05T14:56:32.090Z,18.70
2022-10-05T14:59:14.932Z,18.60
2022-10-05T15:01:52.607Z,18.60
2022-10-05T15:04:20.548Z,18.60
2022-10-05T15:07:15.338Z,18.60
2022-10-05T15:10:06.803Z,18.50
2022-10-05T15:12:43.902Z,18.50
2022-10-05T15:15:14.229Z,18.40
2022-10-05T15:17:52.531Z,18.40
2022-10-05T15:20:24.428Z,18.30
2022-10-05T15:23:00.371Z,18.30
2022-10-05T15:25:41.834Z,18.30
2022-10-05T15:28:16.859Z,18.30
2022-10-05T15:30:51.801Z,18.30
2022-10-05T15:33:49.187Z,18.20
2022-10-05T15:36:25.153Z,18.20
2022-10-05T15:39:00.365Z,18.20
2022-10-05T15:42:20.286Z,18.10
2022-10-05T15:45:15.321Z,18.00
2022-10-05T15:47:42.345Z,17.90
2022-10-05T15:50:48.244Z,17.90
2022-10-05T15:53:32.092Z,17.90
2022-10-05T15:56:21.025Z,17.80
2022-10-05T15:59:00.029Z,17.70
2022-10-05T16:01:33.326Z,17.70
2022-10-05T16:04:31.688Z,17.60
2022-10-05T16:07:18.809Z,17.60
2022-10-05T16:10:03.942Z,17.50
2022-10-05T16:12:58.660Z,17.50
2022-10-05T16:15:33.487Z,17.50
2022-10-05T16:18:22.271Z,17.50
2022-10-05T16:20:55.798Z,17.40
2022-10-05T16:23:31.931Z,17.40
2022-10-05T16:26:05.283Z,17.30
2022-10-05T16:28:49.697Z,17.30
2022-10-05T16:31:54.259Z,17.20
2022-10-05T16:34:36.633Z,17.20
2022-10-05T16:37:32.746Z,17.10
2022-10-05T16:40:05.118Z,17.00
2022-10-05T16:42:59.290Z,16.90
2022-10-05T16:45:46.010Z,16.90
2022-10-05T16:48:28.275Z,16.90
2022-10-05T16:51:20.937Z,16.80
2022-10-05T16:54:03.207Z,16.70
2022-10-05T16:56:42.475Z,16.60
2022-10-05T16:59:55.783Z,16.60
2022-10-05T17:03:05.245Z,16.50
2022-10-05T17:06:05.870Z,16.40
2022-10-05T17:08:58.699Z,16.30
2022-10-05T17:11:38.567Z,16.30
2022-10-05T17:14:43.798Z,16.20
2022-10-05T17:17:20.593Z,16.10
2022-10-05T17:20:02.912Z,16.00
2022-10-05T17:22:39.581Z,16.00
2022-10-05T17:25:22.252Z,15.90
2022-10-05T17:28:27.747Z,15.80
2022-10-05T17:31:15.392Z,15.80
2022-10-05T17:34:17.809Z,15.70
2022-10-05T17:36:49.675Z,15.60
2022-10-05T17:39:45.654Z,15.50
2022-10-05T17:42:32.783Z,15.50
2022-10-05T17:45:14.275Z,15.40
2022-10-05T17:48:13.556Z,15.30
2022-10-05T17:51:02.999Z,15.30
2022-10-05T17:53:56.354Z,15.20
2022-10-05T17:56:23.522Z,15.10
2022-10-05T17:58:54.335Z,15.00
2022-10-05T18:01:31.518Z,15.00
2022-10-05T18:04:14.331Z,14.90
2022-10-05T18:06:57.048Z,14.80
2022-10-05T18:09:24.874Z,14.80
2022-10-05T18:12:16.380Z,14.80
2022-10-05T18:15:13.833Z,14.70
2022-10-05T18:17:51.630Z,14.60
2022-10-05T18:20:27.816Z,14.60
2022-10-05T18:23:01.327Z,14.50
2022-10-05T18:26:18.054Z,14.50
2022-10-05T18:28:51.343Z,14.50
2022-10-05T18:31:38.166Z,14.50
2022-10-05T18:34:23.795Z,14.40
2022-10-05T18:37:15.502Z,14.40
2022-10-05T18:40:09.783Z,14.30
2022-10-05T18:42:55.317Z,14.30
2022-10-05T18:45:42.661Z,14.30
2022-10-05T18:48:31.418Z,14.30
2022-10-05T18:51:10.822Z,14.30
2022-10-05T18:53:53.925Z,14.20
2022-10-05T18:56:37.329Z,14.20
2022-10-05T18:59:25.813Z,14.20
2022-10-05T19:02:13.482Z,14.20
2022-10-05T19:04:40.650Z,14.20
2022-10-05T19:07:13.492Z,14.20
2022-10-05T19:09:55.825Z,14.10
2022-10-05T19:12:41.885Z,14.10
2022-10-05T19:15:29.645Z,14.10
2022-10-05T19:18:31.064Z,14.00
2022-10-05T19:21:21.425Z,14.00
2022-10-05T19:23:57.778Z,14.00
2022-10-05T19:26:27.646Z,13.90
2022-10-05T19:29:27.110Z,13.90
2022-10-05T19:31:57.511Z,13.90
2022-10-05T19:34:40.827Z,13.90
2022-10-05T19:37:31.232Z,13.90
2022-10-05T19:40:17.356Z,13.90
2022-10-05T19:42:47.192Z,13.80
2022-10-05T19:45:23.335Z,13.80
2022-10-05T19:48:02.630Z,13.80
2022-10-05T19:50:32.620Z,13.70
2022-10-05T19:53:14.035Z,13.70
2022-10-05T19:55:42.229Z,13.70
2022-10-05T19:58:23.749Z,13.70
2022-10-05T20:01:01.592Z,13.60
2022-10-05T20:03:29.983Z,13.60
2022-10-05T20:06:01.014Z,13.50
2022-10-05T20:08:36.487Z,13.50
2022-10-05T20:11:04.663Z,13.50
2022-10-05T20:13:34.932Z,13.50
2022-10-05T20:16:36.155Z,13.50
2022-10-05T20:19:44.088Z,13.50
2022-10-05T20:22:39.714Z,13.50
2022-10-05T20:25:08.480Z,13.60
2022-10-05T20:27:46.439Z,13.50
2022-10-05T20:30:18.542Z,13.60
2022-10-05T20:32:52.464Z,13.60
2022-10-05T20:35:22.918Z,13.50
2022-10-05T20:37:50.131Z,13.50
2022-10-05T20:40:18.682Z,13.50
2022-10-05T20:42:46.392Z,13.50
2022-10-05T20:45:14.006Z,13.50
2022-10-05T20:47:42.076Z,13.50
2022-10-05T20:50:10.038Z,13.50
2022-10-05T20:52:37.487Z,13.50
2022-10-05T20:55:09.368Z,13.50
2022-10-05T20:57:41.385Z,13.50
2022-10-05T21:00:10.196Z,13.50
2022-10-05T21:02:37.979Z,13.50
2022-10-05T21:05:05.602Z,13.50
2022-10-05T21:07:34.123Z,13.40
2022-10-05T21:10:03.227Z,13.40
2022-10-05T21:12:30.470Z,13.40
2022-10-05T21:14:59.594Z,13.40
2022-10-05T21:17:26.752Z,13.40
2022-10-05T21:19:53.902Z,13.30
2022-10-05T21:22:21.017Z,13.30
2022-10-05T21:24:48.385Z,13.30
2022-10-05T21:27:15.556Z,13.30
2022-10-05T21:29:43.985Z,13.20
2022-10-05T21:32:13.743Z,13.20
2022-10-05T21:34:41.464Z,13.20
2022-10-05T21:37:08.780Z,13.20
2022-10-05T21:39:36.519Z,13.20
2022-10-05T21:42:04.024Z,13.10
2022-10-05T21:44:31.145Z,13.10
2022-10-05T21:46:58.356Z,13.10
2022-10-05T21:49:25.517Z,13.10
2022-10-05T21:51:52.706Z,13.10
2022-10-05T21:54:20.803Z,13.00
2022-10-05T21:56:52.730Z,13.10
2022-10-05T21:59:22.096Z,13.00
2022-10-05T22:01:49.317Z,13.00
2022-10-05T22:04:16.463Z,13.00
2022-10-05T22:06:43.645Z,13.00
2022-10-05T22:09:10.901Z,12.90
2022-10-05T22:11:38.136Z,12.90
2022-10-05T22:14:05.298Z,12.80
2022-10-05T22:16:34.114Z,12.80
2022-10-05T22:19:05.227Z,12.80
2022-10-05T22:21:34.356Z,12.80
2022-10-05T22:24:02.644Z,12.70
2022-10-05T22:26:29.777Z,12.60
2022-10-05T22:28:56.994Z,12.60
2022-10-05T22:31:24.211Z,12.60
2022-10-05T22:33:51.529Z,12.50
2022-10-05T22:36:19.012Z,12.60
2022-10-05T22:38:47.716Z,12.50
2022-10-05T22:41:15.218Z,12.50
2022-10-05T22:43:42.390Z,12.50
2022-10-05T22:46:12.991Z,12.50
2022-10-05T22:48:40.256Z,12.50
2022-10-05T22:51:07.859Z,12.50
2022-10-05T22:53:35.441Z,12.50
2022-10-05T22:56:07.049Z,12.50
2022-10-05T22:58:34.244Z,12.50
2022-10-05T23:01:05.904Z,12.50
2022-10-05T23:03:33.395Z,12.50
2022-10-05T23:06:04.909Z,12.50
2022-10-05T23:08:33.102Z,12.40
2022-10-05T23:11:10.265Z,12.40
2022-10-05T23:13:37.897Z,12.40
2022-10-05T23:16:06.531Z,12.40
2022-10-05T23:18:33.907Z,12.30
2022-10-05T23:21:01.075Z,12.30
2022-10-05T23:23:28.295Z,12.30
2022-10-05T23:26:01.566Z,12.30
2022-10-05T23:28:29.350Z,12.30
2022-10-05T23:31:00.637Z,12.30
2022-10-05T23:33:28.391Z,12.30
2022-10-05T23:36:03.954Z,12.30
2022-10-05T23:38:31.408Z,12.30
2022-10-05T23:40:59.679Z,12.20
2022-10-05T23:43:27.269Z,12.20
2022-10-05T23:45:54.883Z,12.30
2022-10-05T23:48:22.437Z,12.20
2022-10-05T23:50:49.599Z,12.20
2022-10-05T23:53:17.247Z,12.20
2022-10-05T23:55:44.498Z,12.20
2022-10-05T23:58:11.720Z,12.20
